createdAt,value
2022-10-06T00:00:08.463Z,1006.87
2022-10-06T00:01:08.528Z,1006.83
2022-10-06T00:02:08.497Z,1006.82
2022-10-06T00:03:08.454Z,1006.87
2022-10-06T00:04:08.443Z,1006.86
2022-10-06T00:05:08.406Z,1006.83
2022-10-06T00:06:08.417Z,1006.87
2022-10-06T00:07:08.407Z,1006.85
2022-10-06T00:08:10.303Z,1006.85
2022-10-06T00:09:08.368Z,1006.94
2022-10-06T00:10:08.352Z,1006.96
2022-10-06T00:11:08.340Z,1006.90
2022-10-06T00:12:08.336Z,1006.93
2022-10-06T00:13:08.351Z,1006.94
2022-10-06T00:14:08.308Z,1006.94
2022-10-06T00:15:08.300Z,1006.95
2022-10-06T00:16:08.378Z,1006.94
2022-10-06T00:17:08.272Z,1006.98
2022-10-06T00:18:08.280Z,1006.99
2022-10-06T00:19:08.250Z,1006.97
2022-10-06T00:20:08.240Z,1007.03
2022-10-06T00:21:08.251Z,1006.98
2022-10-06T00:22:08.255Z,1007.01
2022-10-06T00:23:08.208Z,1007.00
2022-10-06T00:24:08.201Z,1007.04
2022-10-06T00:25:08.204Z,1007.02
2022-10-06T00:26:08.172Z,1007.07
2022-10-06T00:27:08.187Z,1007.05
2022-10-06T00:28:08.270Z,1007.06
2022-10-06T00:29:08.141Z,1007.09
2022-10-06T00:30:08.140Z,1007.16
2022-10-06T00:31:08.195Z,1007.14
2022-10-06T00:32:08.111Z,1007.11
2022-10-06T00:33:08.189Z,1007.10
2022-10-06T00:34:08.083Z,1007.05
2022-10-06T00:35:08.085Z,1007.01
2022-10-06T00:36:08.078Z,1007.06
2022-10-06T00:37:08.050Z,1007.02
2022-10-06T00:38:08.064Z,1007.04
2022-10-06T00:39:08.042Z,1007.04
2022-10-06T00:40:08.040Z,1007.03
2022-10-06T00:41:08.044Z,1007.17
2022-10-06T00:42:07.997Z,1007.12
2022-10-06T00:43:07.984Z,1007.16
2022-10-06T00:44:07.971Z,1007.17
2022-10-06T00:45:07.970Z,1007.10
2022-10-06T00:46:08.002Z,1007.16
2022-10-06T00:47:07.954Z,1007.19
2022-10-06T00:48:07.927Z,1007.14
2022-10-06T00:49:07.919Z,1007.19
2022-10-06T00:50:07.909Z,1007.20
2022-10-06T00:51:07.920Z,1007.19
2022-10-06T00:52:07.898Z,1007.24
2022-10-06T00:53:07.902Z,1007.23
2022-10-06T00:54:07.883Z,1007.17
2022-10-06T00:55:07.854Z,1007.18
2022-10-06T00:56:07.840Z,1007.22
2022-10-06T00:57:07.855Z,1007.22
2022-10-06T00:58:07.821Z,1007.26
2022-10-06T00:59:07.855Z,1007.29
2022-10-06T01:00:07.822Z,1007.37
2022-10-06T01:01:07.841Z,1007.34
2022-10-06T01:02:07.774Z,1007.34
2022-10-06T01:03:07.914Z,1007.39
2022-10-06T01:04:07.759Z,1007.37
2022-10-06T01:05:07.778Z,1007.35
2022-10-06T01:06:07.768Z,1007.39
2022-10-06T01:07:07.722Z,1007.31
2022-10-06T01:08:07.739Z,1007.37
2022-10-06T01:09:07.698Z,1007.40
2022-10-06T01:10:07.715Z,1007.44
2022-10-06T01:11:07.698Z,1007.39
2022-10-06T01:12:07.666Z,1007.34
2022-10-06T01:13:07.682Z,1007.33
2022-10-06T01:14:07.659Z,1007.33
2022-10-06T01:15:07.661Z,1007.34
2022-10-06T01:16:07.695Z,1007.35
2022-10-06T01:17:07.630Z,1007.34
2022-10-06T01:18:07.599Z,1007.39
2022-10-06T01:19:07.623Z,1007.35
2022-10-06T01:20:07.598Z,1007.34
2022-10-06T01:21:07.594Z,1007.35
2022-10-06T01:22:07.570Z,1007.31
2022-10-06T01:23:07.545Z,1007.29
2022-10-06T01:24:07.533Z,1007.29
2022-10-06T01:25:07.523Z,1007.33
2022-10-06T01:26:07.528Z,1007.32
2022-10-06T01:27:07.530Z,1007.28
2022-10-06T01:28:07.588Z,1007.30
2022-10-06T01:29:07.480Z,1007.30
2022-10-06T01:30:07.552Z,1007.32
2022-10-06T01:31:07.512Z,1007.33
2022-10-06T01:32:07.445Z,1007.30
2022-10-06T01:33:07.477Z,1007.35
2022-10-06T01:34:07.455Z,1007.30
2022-10-06T01:35:07.413Z,1007.29
2022-10-06T01:36:07.446Z,1007.32
2022-10-06T01:37:07.401Z,1007.34
2022-10-06T01:38:07.378Z,1007.30
2022-10-06T01:39:07.704Z,1007.31
2022-10-06T01:40:07.371Z,1007.30
2022-10-06T01:41:07.348Z,1007.29
2022-10-06T01:42:07.394Z,1007.32
2022-10-06T01:43:07.328Z,1007.30
2022-10-06T01:44:07.335Z,1007.38
2022-10-06T01:45:07.318Z,1007.33
2022-10-06T01:46:07.341Z,1007.34
2022-10-06T01:47:07.281Z,1007.33
2022-10-06T01:48:07.276Z,1007.27
2022-10-06T01:49:07.281Z,1007.34
2022-10-06T01:50:07.281Z,1007.33
2022-10-06T01:51:07.250Z,1007.33
2022-10-06T01:52:07.226Z,1007.36
2022-10-06T01:53:07.215Z,1007.35
2022-10-06T01:54:07.229Z,1007.33
2022-10-06T01:55:07.203Z,1007.32
2022-10-06T01:56:07.209Z,1007.37
2022-10-06T01:57:07.189Z,1007.33
2022-10-06T01:58:07.222Z,1007.35
2022-10-06T01:59:07.149Z,1007.37
2022-10-06T02:00:07.157Z,1007.40
2022-10-06T02:01:07.147Z,1007.43
2022-10-06T02:02:07.122Z,1007.46
2022-10-06T02:03:07.113Z,1007.47
2022-10-06T02:04:07.135Z,1007.48
2022-10-06T02:05:07.098Z,1007.48
2022-10-06T02:06:07.115Z,1007.49
2022-10-06T02:07:07.090Z,1007.47
2022-10-06T02:08:07.060Z,1007.47
2022-10-06T02:09:07.050Z,1007.45
2022-10-06T02:10:07.061Z,1007.50
2022-10-06T02:11:07.027Z,1007.53
2022-10-06T02:12:07.022Z,1007.48
2022-10-06T02:13:06.993Z,1007.53
2022-10-06T02:14:07.012Z,1007.52
2022-10-06T02:15:06.998Z,1007.52
2022-10-06T02:16:07.035Z,1007.56
2022-10-06T02:17:06.955Z,1007.60
2022-10-06T02:18:06.971Z,1007.60
2022-10-06T02:19:07.034Z,1007.61
2022-10-06T02:20:06.929Z,1007.61
2022-10-06T02:21:06.923Z,1007.64
2022-10-06T02:22:06.894Z,1007.61
2022-10-06T02:23:06.882Z,1007.59
2022-10-06T02:24:06.892Z,1007.58
2022-10-06T02:25:06.861Z,1007.66
2022-10-06T02:26:06.855Z,1007.61
2022-10-06T02:27:06.860Z,1007.66
2022-10-06T02:28:06.914Z,1007.63
2022-10-06T02:29:06.815Z,1007.64
2022-10-06T02:30:06.826Z,1007.65
2022-10-06T02:31:06.949Z,1007.73
2022-10-06T02:32:06.790Z,1007.72
2022-10-06T02:33:06.803Z,1007.80
2022-10-06T02:34:06.759Z,1007.79
2022-10-06T02:35:06.755Z,1007.82
2022-10-06T02:36:06.740Z,1007.88
2022-10-06T02:37:06.745Z,1007.89
2022-10-06T02:38:06.742Z,1007.98
2022-10-06T02:39:06.734Z,1007.98
2022-10-06T02:40:06.692Z,1007.97
2022-10-06T02:41:06.692Z,1008.01
2022-10-06T02:42:06.699Z,1008.08
2022-10-06T02:43:06.697Z,1008.05
2022-10-06T02:44:06.649Z,1008.08
2022-10-06T02:45:06.639Z,1008.14
2022-10-06T02:46:06.684Z,1008.16
2022-10-06T02:47:06.642Z,1008.18
2022-10-06T02:48:06.607Z,1008.19
2022-10-06T02:49:06.643Z,1008.17
2022-10-06T02:50:06.583Z,1008.25
2022-10-06T02:51:06.574Z,1008.28
2022-10-06T02:52:06.578Z,1008.24
2022-10-06T02:53:06.574Z,1008.29
2022-10-06T02:54:06.554Z,1008.26
2022-10-06T02:55:06.577Z,1008.24
2022-10-06T02:56:06.521Z,1008.26
2022-10-06T02:57:06.507Z,1008.23
2022-10-06T02:58:06.503Z,1008.29
2022-10-06T02:59:06.510Z,1008.35
2022-10-06T03:00:06.486Z,1008.42
2022-10-06T03:01:06.511Z,1008.37
2022-10-06T03:02:06.623Z,1008.38
2022-10-06T03:03:06.485Z,1008.39
2022-10-06T03:04:06.607Z,1008.40
2022-10-06T03:05:06.420Z,1008.39
2022-10-06T03:06:06.416Z,1008.42
2022-10-06T03:07:06.410Z,1008.45
2022-10-06T03:08:06.387Z,1008.46
2022-10-06T03:09:06.453Z,1008.40
2022-10-06T03:10:06.367Z,1008.46
2022-10-06T03:11:06.354Z,1008.45
2022-10-06T03:12:06.352Z,1008.46
2022-10-06T03:13:06.332Z,1008.45
2022-10-06T03:14:06.323Z,1008.40
2022-10-06T03:15:06.325Z,1008.42
2022-10-06T03:16:06.378Z,1008.45
2022-10-06T03:17:06.289Z,1008.45
2022-10-06T03:18:06.303Z,1008.41
2022-10-06T03:19:06.299Z,1008.47
2022-10-06T03:20:06.254Z,1008.45
2022-10-06T03:21:06.243Z,1008.42
2022-10-06T03:22:06.245Z,1008.46
2022-10-06T03:23:10.257Z,1008.52
2022-10-06T03:24:06.226Z,1008.53
2022-10-06T03:25:06.221Z,1008.50
2022-10-06T03:26:06.208Z,1008.51
2022-10-06T03:27:06.181Z,1008.54
2022-10-06T03:28:06.226Z,1008.50
2022-10-06T03:29:11.129Z,1008.61
2022-10-06T03:30:06.218Z,1008.60
2022-10-06T03:31:06.250Z,1008.60
2022-10-06T03:32:06.136Z,1008.64
2022-10-06T03:33:06.135Z,1008.65
2022-10-06T03:34:06.116Z,1008.70
2022-10-06T03:35:06.094Z,1008.65
2022-10-06T03:36:06.096Z,1008.66
2022-10-06T03:37:06.065Z,1008.68
2022-10-06T03:38:06.080Z,1008.70
2022-10-06T03:39:06.050Z,1008.73
2022-10-06T03:40:06.034Z,1008.77
2022-10-06T03:41:06.032Z,1008.78
2022-10-06T03:42:06.066Z,1008.77
2022-10-06T03:43:06.018Z,1008.93
2022-10-06T03:44:06.009Z,1008.88
2022-10-06T03:45:05.985Z,1008.93
2022-10-06T03:46:05.965Z,1009.04
2022-10-06T03:47:06.067Z,1009.00
2022-10-06T03:48:05.945Z,1008.98
2022-10-06T03:49:05.955Z,1008.98
2022-10-06T03:50:05.950Z,1009.02
2022-10-06T03:51:05.934Z,1009.00
2022-10-06T03:52:05.902Z,1009.04
2022-10-06T03:53:05.896Z,1008.95
2022-10-06T03:54:06.019Z,1008.99
2022-10-06T03:55:05.882Z,1009.05
2022-10-06T03:56:05.878Z,1009.03
2022-10-06T03:57:05.898Z,1009.01
2022-10-06T03:58:05.838Z,1009.08
2022-10-06T03:59:05.894Z,1009.15
2022-10-06T04:00:05.836Z,1009.15
2022-10-06T04:01:05.848Z,1009.23
2022-10-06T04:02:05.858Z,1009.23
2022-10-06T04:03:05.799Z,1009.26
2022-10-06T04:04:05.774Z,1009.32
2022-10-06T04:05:05.787Z,1009.33
2022-10-06T04:06:05.779Z,1009.34
2022-10-06T04:07:05.758Z,1009.44
2022-10-06T04:08:05.733Z,1009.50
2022-10-06T04:09:05.744Z,1009.47
2022-10-06T04:10:05.703Z,1009.50
2022-10-06T04:11:05.691Z,1009.51
2022-10-06T04:12:05.682Z,1009.49
2022-10-06T04:13:05.727Z,1009.56
2022-10-06T04:14:05.666Z,1009.52
2022-10-06T04:15:05.651Z,1009.51
2022-10-06T04:16:05.689Z,1009.60
2022-10-06T04:17:05.632Z,1009.58
2022-10-06T04:18:05.636Z,1009.59
2022-10-06T04:19:05.603Z,1009.63
2022-10-06T04:20:05.641Z,1009.62
2022-10-06T04:21:05.580Z,1009.67
2022-10-06T04:22:05.690Z,1009.71
2022-10-06T04:23:05.564Z,1009.73
2022-10-06T04:24:05.556Z,1009.72
2022-10-06T04:25:05.577Z,1009.72
2022-10-06T04:26:05.549Z,1009.83
2022-10-06T04:27:05.528Z,1009.74
2022-10-06T04:28:05.558Z,1009.76
2022-10-06T04:29:05.491Z,1009.75
2022-10-06T04:30:05.480Z,1009.90
2022-10-06T04:31:05.494Z,1009.88
2022-10-06T04:32:05.470Z,1009.90
2022-10-06T04:33:05.455Z,1009.93
2022-10-06T04:34:05.470Z,1010.01
2022-10-06T04:35:05.440Z,1010.04
2022-10-06T04:36:05.449Z,1010.04
2022-10-06T04:37:05.408Z,1010.08
2022-10-06T04:38:05.436Z,1010.19
2022-10-06T04:39:05.400Z,1010.22
2022-10-06T04:40:05.370Z,1010.34
2022-10-06T04:41:05.363Z,1010.35
2022-10-06T04:42:05.370Z,1010.42
2022-10-06T04:43:05.357Z,1010.48
2022-10-06T04:44:05.325Z,1010.51
2022-10-06T04:45:05.316Z,1010.45
2022-10-06T04:46:24.032Z,1010.51
2022-10-06T04:47:05.408Z,1010.51
2022-10-06T04:48:05.305Z,1010.56
2022-10-06T04:49:05.270Z,1010.52
2022-10-06T04:50:05.260Z,1010.42
2022-10-06T04:51:05.269Z,1010.54
2022-10-06T04:52:05.236Z,1010.41
2022-10-06T04:53:05.229Z,1010.45
2022-10-06T04:54:05.248Z,1010.46
2022-10-06T04:55:05.202Z,1010.45
2022-10-06T04:56:05.227Z,1010.51
2022-10-06T04:57:05.190Z,1010.59
2022-10-06T04:58:05.168Z,1010.63
2022-10-06T04:59:05.159Z,1010.66
2022-10-06T05:00:08.847Z,1010.75
2022-10-06T05:01:05.210Z,1010.73
2022-10-06T05:02:05.171Z,1010.79
2022-10-06T05:03:05.115Z,1010.81
2022-10-06T05:04:05.109Z,1010.88
2022-10-06T05:05:05.118Z,1010.85
2022-10-06T05:06:05.088Z,1010.88
2022-10-06T05:07:05.068Z,1010.85
2022-10-06T05:08:05.095Z,1010.95
2022-10-06T05:09:05.080Z,1010.98
2022-10-06T05:10:05.060Z,1011.00
2022-10-06T05:11:05.029Z,1011.06
2022-10-06T05:12:05.026Z,1011.07
2022-10-06T05:13:05.035Z,1011.10
2022-10-06T05:14:05.013Z,1011.20
2022-10-06T05:15:04.979Z,1011.15
2022-10-06T05:16:04.984Z,1011.17
2022-10-06T05:17:04.978Z,1011.16
2022-10-06T05:18:04.948Z,1011.21
2022-10-06T05:19:04.944Z,1011.18
2022-10-06T05:20:04.941Z,1011.17
2022-10-06T05:21:06.713Z,1011.18
2022-10-06T05:22:04.968Z,1011.18
2022-10-06T05:23:05.521Z,1011.12
2022-10-06T05:24:04.881Z,1011.18
2022-10-06T05:25:04.879Z,1011.26
2022-10-06T05:26:04.934Z,1011.30
2022-10-06T05:27:04.863Z,1011.30
2022-10-06T05:28:04.889Z,1011.35
2022-10-06T05:29:04.831Z,1011.47
2022-10-06T05:30:04.836Z,1011.55
2022-10-06T05:31:04.815Z,1011.58
2022-10-06T05:32:04.900Z,1011.63
2022-10-06T05:33:04.890Z,1011.71
2022-10-06T05:34:04.781Z,1011.74
2022-10-06T05:35:04.780Z,1011.79
2022-10-06T05:36:04.746Z,1011.84
2022-10-06T05:37:04.743Z,1011.92
2022-10-06T05:38:04.725Z,1011.90
2022-10-06T05:39:04.713Z,1011.98
2022-10-06T05:40:04.723Z,1011.99
2022-10-06T05:41:04.777Z,1012.08
2022-10-06T05:42:04.701Z,1012.06
2022-10-06T05:43:04.683Z,1012.00
2022-10-06T05:44:04.688Z,1011.94
2022-10-06T05:45:04.647Z,1011.91
2022-10-06T05:46:04.681Z,1011.86
2022-10-06T05:47:04.623Z,1011.84
2022-10-06T05:48:04.621Z,1011.87
2022-10-06T05:49:04.616Z,1011.94
2022-10-06T05:50:04.623Z,1012.00
2022-10-06T05:51:04.590Z,1012.05
2022-10-06T05:52:04.602Z,1012.06
2022-10-06T05:53:04.559Z,1012.06
2022-10-06T05:54:04.548Z,1012.14
2022-10-06T05:55:04.608Z,1012.16
2022-10-06T05:56:04.525Z,1012.17
2022-10-06T05:57:04.528Z,1012.13
2022-10-06T05:58:04.611Z,1012.17
2022-10-06T05:59:04.495Z,1012.18
2022-10-06T06:00:04.485Z,1012.22
2022-10-06T06:01:04.489Z,1012.27
2022-10-06T06:02:04.560Z,1012.31
2022-10-06T06:03:04.480Z,1012.34
2022-10-06T06:04:04.435Z,1012.37
2022-10-06T06:05:04.435Z,1012.40
2022-10-06T06:06:04.423Z,1012.46
2022-10-06T06:07:04.409Z,1012.42
2022-10-06T06:08:04.407Z,1012.57
2022-10-06T06:09:04.380Z,1012.54
2022-10-06T06:10:04.387Z,1012.67
2022-10-06T06:11:04.415Z,1012.65
2022-10-06T06:12:04.374Z,1012.67
2022-10-06T06:13:04.339Z,1012.74
2022-10-06T06:14:04.344Z,1012.65
2022-10-06T06:15:04.328Z,1012.65
2022-10-06T06:16:04.303Z,1012.66
2022-10-06T06:17:04.374Z,1012.65
2022-10-06T06:18:04.297Z,1012.65
2022-10-06T06:19:04.283Z,1012.67
2022-10-06T06:20:04.259Z,1012.73
2022-10-06T06:21:04.286Z,1012.72
2022-10-06T06:22:04.254Z,1012.74
2022-10-06T06:23:04.237Z,1012.75
2022-10-06T06:24:04.215Z,1012.77
2022-10-06T06:25:04.223Z,1012.79
2022-10-06T06:26:04.206Z,1012.88
2022-10-06T06:27:04.180Z,1012.88
2022-10-06T06:28:04.266Z,1012.86
2022-10-06T06:29:04.287Z,1012.80
2022-10-06T06:30:04.168Z,1012.82
2022-10-06T06:31:04.189Z,1012.82
2022-10-06T06:32:04.143Z,1012.84
2022-10-06T06:33:04.113Z,1012.88
2022-10-06T06:34:04.129Z,1012.98
2022-10-06T06:35:04.111Z,1012.97
2022-10-06T06:36:04.082Z,1012.94
2022-10-06T06:37:08.429Z,1012.97
2022-10-06T06:38:04.066Z,1013.03
2022-10-06T06:39:04.072Z,1013.05
2022-10-06T06:40:04.054Z,1013.03
2022-10-06T06:41:04.062Z,1013.05
2022-10-06T06:42:04.019Z,1013.13
2022-10-06T06:43:04.024Z,1013.09
2022-10-06T06:44:04.013Z,1013.15
2022-10-06T06:45:04.023Z,1013.13
2022-10-06T06:46:04.133Z,1013.14
2022-10-06T06:47:03.962Z,1013.27
2022-10-06T06:48:04.036Z,1013.30
2022-10-06T06:49:03.942Z,1013.33
2022-10-06T06:50:04.089Z,1013.36
2022-10-06T06:51:03.916Z,1013.37
2022-10-06T06:52:03.912Z,1013.39
2022-10-06T06:53:03.895Z,1013.37
2022-10-06T06:54:04.244Z,1013.42
2022-10-06T06:55:03.883Z,1013.50
2022-10-06T06:56:03.890Z,1013.47
2022-10-06T06:57:04.121Z,1013.54
2022-10-06T06:58:03.850Z,1013.53
2022-10-06T06:59:03.860Z,1013.57
2022-10-06T07:00:03.928Z,1013.54
2022-10-06T07:01:03.861Z,1013.62
2022-10-06T07:02:03.937Z,1013.67
2022-10-06T07:03:03.812Z,1013.71
2022-10-06T07:04:03.841Z,1013.69
2022-10-06T07:05:03.765Z,1013.66
2022-10-06T07:06:03.757Z,1013.71
2022-10-06T07:07:03.776Z,1013.74
2022-10-06T07:08:03.730Z,1013.76
2022-10-06T07:09:03.765Z,1013.77
2022-10-06T07:10:03.730Z,1013.74
2022-10-06T07:11:03.699Z,1013.71
2022-10-06T07:12:03.687Z,1013.82
2022-10-06T07:13:03.686Z,1013.79
2022-10-06T07:14:03.663Z,1013.82
2022-10-06T07:15:03.738Z,1013.85
2022-10-06T07:16:03.712Z,1013.87
2022-10-06T07:17:03.665Z,1013.89
2022-10-06T07:18:03.636Z,1013.95
2022-10-06T07:19:03.628Z,1013.91
2022-10-06T07:20:03.610Z,1013.97
2022-10-06T07:21:03.591Z,1013.98
2022-10-06T07:22:03.581Z,1014.07
2022-10-06T07:23:03.563Z,1014.06
2022-10-06T07:24:03.567Z,1014.07
2022-10-06T07:25:03.589Z,1014.05
2022-10-06T07:26:03.533Z,1014.07
2022-10-06T07:27:03.537Z,1014.08
2022-10-06T07:28:03.594Z,1014.17
2022-10-06T07:29:03.504Z,1014.23
2022-10-06T07:30:03.512Z,1014.19
2022-10-06T07:31:03.503Z,1014.31
2022-10-06T07:32:03.472Z,1014.37
2022-10-06T07:33:03.471Z,1014.38
2022-10-06T07:34:03.477Z,1014.37
2022-10-06T07:35:03.457Z,1014.40
2022-10-06T07:36:03.435Z,1014.37
2022-10-06T07:37:06.406Z,1014.43
2022-10-06T07:38:03.409Z,1014.40
2022-10-06T07:39:03.418Z,1014.45
2022-10-06T07:40:03.753Z,1014.39
2022-10-06T07:41:20.267Z,1014.33
2022-10-06T07:42:04.366Z,1014.41
2022-10-06T07:43:07.671Z,1014.39
2022-10-06T07:44:07.738Z,1014.36
2022-10-06T07:45:03.323Z,1014.38
2022-10-06T07:46:03.398Z,1014.41
2022-10-06T07:47:03.304Z,1014.47
2022-10-06T07:48:03.374Z,1014.49
2022-10-06T07:49:03.289Z,1014.46
2022-10-06T07:50:03.311Z,1014.43
2022-10-06T07:51:03.322Z,1014.48
2022-10-06T07:52:03.250Z,1014.49
2022-10-06T07:53:03.234Z,1014.46
2022-10-06T07:54:03.247Z,1014.45
2022-10-06T07:55:03.214Z,1014.47
2022-10-06T07:56:03.231Z,1014.54
2022-10-06T07:57:03.217Z,1014.54
2022-10-06T07:58:03.182Z,1014.59
2022-10-06T07:59:03.203Z,1014.60
2022-10-06T08:00:03.579Z,1014.61
2022-10-06T08:01:03.150Z,1014.62
2022-10-06T08:02:03.279Z,1014.67
2022-10-06T08:03:03.202Z,1014.57
2022-10-06T08:04:03.114Z,1014.60
2022-10-06T08:05:03.116Z,1014.71
2022-10-06T08:06:03.136Z,1014.71
2022-10-06T08:07:03.087Z,1014.67
2022-10-06T08:08:03.095Z,1014.76
2022-10-06T08:09:03.064Z,1014.68
2022-10-06T08:10:03.054Z,1014.74
2022-10-06T08:11:03.058Z,1014.62
2022-10-06T08:12:03.076Z,1014.68
2022-10-06T08:13:03.025Z,1014.73
2022-10-06T08:14:03.035Z,1014.81
2022-10-06T08:15:06.107Z,1014.74
2022-10-06T08:16:03.094Z,1014.73
2022-10-06T08:17:02.978Z,1014.79
2022-10-06T08:18:06.228Z,1014.76
2022-10-06T08:19:02.963Z,1014.88
2022-10-06T08:20:03.925Z,1014.86
2022-10-06T08:21:03.247Z,1014.89
2022-10-06T08:22:04.984Z,1014.95
2022-10-06T08:23:02.915Z,1014.99
2022-10-06T08:24:02.896Z,1015.03
2022-10-06T08:25:06.976Z,1014.99
2022-10-06T08:26:03.048Z,1015.01
2022-10-06T08:27:02.950Z,1015.08
2022-10-06T08:28:04.636Z,1015.03
2022-10-06T08:29:03.764Z,1015.04
2022-10-06T08:30:02.849Z,1015.06
2022-10-06T08:31:02.941Z,1015.03
2022-10-06T08:32:02.902Z,1015.08
2022-10-06T08:33:02.796Z,1015.08
2022-10-06T08:34:02.807Z,1015.04
2022-10-06T08:35:02.779Z,1015.12
2022-10-06T08:36:02.796Z,1015.10
2022-10-06T08:37:19.329Z,1015.14
2022-10-06T08:38:02.766Z,1015.09
2022-10-06T08:39:02.777Z,1015.07
2022-10-06T08:40:02.725Z,1015.12
2022-10-06T08:41:02.733Z,1015.15
2022-10-06T08:42:02.715Z,1015.12
2022-10-06T08:43:02.706Z,1015.11
2022-10-06T08:44:02.681Z,1015.23
2022-10-06T08:45:02.667Z,1015.21
2022-10-06T08:46:02.679Z,1015.13
2022-10-06T08:47:02.675Z,1015.10
2022-10-06T08:48:02.693Z,1015.23
2022-10-06T08:49:02.634Z,1015.28
2022-10-06T08:50:02.609Z,1015.30
2022-10-06T08:51:02.616Z,1015.24
2022-10-06T08:52:02.618Z,1015.22
2022-10-06T08:53:02.575Z,1015.30
2022-10-06T08:54:02.658Z,1015.32
2022-10-06T08:55:02.556Z,1015.26
2022-10-06T08:56:02.543Z,1015.31
2022-10-06T08:57:02.562Z,1015.35
2022-10-06T08:58:02.605Z,1015.33
2022-10-06T08:59:02.511Z,1015.26
2022-10-06T09:00:02.524Z,1015.31
2022-10-06T09:01:02.561Z,1015.31
2022-10-06T09:02:02.562Z,1015.24
2022-10-06T09:03:02.465Z,1015.29
2022-10-06T09:04:02.502Z,1015.39
2022-10-06T09:05:02.456Z,1015.33
2022-10-06T09:06:02.443Z,1015.35
2022-10-06T09:07:02.855Z,1015.38
2022-10-06T09:08:02.410Z,1015.32
2022-10-06T09:09:02.401Z,1015.45
2022-10-06T09:10:02.435Z,1015.40
2022-10-06T09:11:02.430Z,1015.47
2022-10-06T09:12:02.391Z,1015.43
2022-10-06T09:13:02.390Z,1015.50
2022-10-06T09:14:02.366Z,1015.56
2022-10-06T09:15:02.337Z,1015.50
2022-10-06T09:16:03.427Z,1015.53
2022-10-06T09:17:02.420Z,1015.58
2022-10-06T09:18:02.313Z,1015.60
2022-10-06T09:19:08.698Z,1015.62
2022-10-06T09:20:03.701Z,1015.72
2022-10-06T09:21:02.753Z,1015.64
2022-10-06T09:22:02.349Z,1015.65
2022-10-06T09:23:02.282Z,1015.66
2022-10-06T09:24:02.268Z,1015.70
2022-10-06T09:25:02.242Z,1015.76
2022-10-06T09:26:02.230Z,1015.69
2022-10-06T09:27:02.221Z,1015.71
2022-10-06T09:28:02.227Z,1015.74
2022-10-06T09:29:02.197Z,1015.71
2022-10-06T09:30:02.166Z,1015.68
2022-10-06T09:31:02.263Z,1015.78
2022-10-06T09:32:02.208Z,1015.81
2022-10-06T09:33:02.161Z,1015.78
2022-10-06T09:34:02.157Z,1015.79
2022-10-06T09:35:02.183Z,1015.77
2022-10-06T09:36:02.152Z,1015.76
2022-10-06T09:37:02.370Z,1015.79
2022-10-06T09:38:05.778Z,1015.80
2022-10-06T09:39:02.071Z,1015.81
2022-10-06T09:40:02.084Z,1015.91
2022-10-06T09:41:02.042Z,1015.88
2022-10-06T09:42:02.054Z,1015.90
2022-10-06T09:43:02.073Z,1015.85
2022-10-06T09:44:02.023Z,1015.87
2022-10-06T09:45:02.051Z,1015.86
2022-10-06T09:46:02.044Z,1015.83
2022-10-06T09:47:01.984Z,1015.89
2022-10-06T09:48:01.983Z,1015.82
2022-10-06T09:49:01.954Z,1015.97
2022-10-06T09:50:10.092Z,1015.90
2022-10-06T09:51:01.937Z,1015.92
2022-10-06T09:52:02.149Z,1015.90
2022-10-06T09:53:01.941Z,1015.86
2022-10-06T09:54:01.906Z,1015.89
2022-10-06T09:55:01.886Z,1015.87
2022-10-06T09:56:01.877Z,1015.94
2022-10-06T09:57:01.873Z,1016.03
2022-10-06T09:58:01.869Z,1015.99
2022-10-06T09:59:01.870Z,1016.01
2022-10-06T10:00:01.900Z,1016.04
2022-10-06T10:01:01.873Z,1016.05
2022-10-06T10:02:01.807Z,1016.05
2022-10-06T10:03:01.865Z,1016.04
2022-10-06T10:04:19.479Z,1016.08
2022-10-06T10:05:02.775Z,1016.08
2022-10-06T10:06:01.770Z,1016.14
2022-10-06T10:07:02.090Z,1016.03
2022-10-06T10:08:02.088Z,1016.09
2022-10-06T10:09:08.642Z,1016.13
2022-10-06T10:10:04.625Z,1016.09
2022-10-06T10:11:02.938Z,1016.17
2022-10-06T10:12:03.798Z,1016.15
2022-10-06T10:13:01.705Z,1016.22
2022-10-06T10:14:01.702Z,1016.15
2022-10-06T10:15:01.695Z,1016.18
2022-10-06T10:16:02.467Z,1016.22
2022-10-06T10:17:01.651Z,1016.14
2022-10-06T10:18:02.430Z,1016.19
2022-10-06T10:19:04.438Z,1016.22
2022-10-06T10:20:01.622Z,1016.24
2022-10-06T10:21:01.605Z,1016.16
2022-10-06T10:22:01.591Z,1016.14
2022-10-06T10:23:01.573Z,1016.17
2022-10-06T10:24:01.583Z,1016.11
2022-10-06T10:25:01.552Z,1016.16
2022-10-06T10:26:01.573Z,1016.10
2022-10-06T10:27:01.551Z,1016.12
2022-10-06T10:28:01.560Z,1016.15
2022-10-06T10:29:01.529Z,1016.11
2022-10-06T10:30:01.531Z,1016.08
2022-10-06T10:31:01.541Z,1016.15
2022-10-06T10:32:01.473Z,1016.07
2022-10-06T10:33:01.482Z,1016.02
2022-10-06T10:34:12.456Z,1016.05
2022-10-06T10:35:01.452Z,1016.07
2022-10-06T10:36:01.440Z,1016.07
2022-10-06T10:37:02.494Z,1016.08
2022-10-06T10:38:14.742Z,1016.12
2022-10-06T10:39:03.023Z,1016.10
2022-10-06T10:40:01.409Z,1016.12
2022-10-06T10:41:01.383Z,1016.20
2022-10-06T10:42:01.386Z,1016.19
2022-10-06T10:43:01.355Z,1016.24
2022-10-06T10:44:04.130Z,1016.28
2022-10-06T10:45:01.339Z,1016.33
2022-10-06T10:46:01.355Z,1016.33
2022-10-06T10:47:01.387Z,1016.27
2022-10-06T10:48:01.299Z,1016.30
2022-10-06T10:49:02.302Z,1016.33
2022-10-06T10:50:01.299Z,1016.34
2022-10-06T10:51:01.263Z,1016.31
2022-10-06T10:52:01.251Z,1016.37
2022-10-06T10:53:01.495Z,1016.35
2022-10-06T10:54:01.235Z,1016.35
2022-10-06T10:55:01.217Z,1016.37
2022-10-06T10:56:01.236Z,1016.33
2022-10-06T10:57:03.305Z,1016.33
2022-10-06T10:58:02.209Z,1016.38
2022-10-06T10:59:12.079Z,1016.40
2022-10-06T11:00:01.186Z,1016.37
2022-10-06T11:01:01.211Z,1016.32
2022-10-06T11:02:01.289Z,1016.35
2022-10-06T11:03:01.149Z,1016.33
2022-10-06T11:04:01.120Z,1016.32
2022-10-06T11:05:01.661Z,1016.37
2022-10-06T11:06:02.108Z,1016.39
2022-10-06T11:07:01.106Z,1016.47
2022-10-06T11:08:01.110Z,1016.45
2022-10-06T11:09:01.065Z,1016.43
2022-10-06T11:10:01.053Z,1016.42
2022-10-06T11:11:01.079Z,1016.37
2022-10-06T11:12:01.034Z,1016.40
2022-10-06T11:13:01.032Z,1016.39
2022-10-06T11:14:01.061Z,1016.43
2022-10-06T11:15:01.475Z,1016.45
2022-10-06T11:16:01.032Z,1016.45
2022-10-06T11:17:01.036Z,1016.47
2022-10-06T11:18:01.007Z,1016.47
2022-10-06T11:19:00.966Z,1016.40
2022-10-06T11:20:00.973Z,1016.47
2022-10-06T11:21:00.935Z,1016.37
2022-10-06T11:22:01.447Z,1016.39
2022-10-06T11:23:01.894Z,1016.37
2022-10-06T11:24:00.920Z,1016.34
2022-10-06T11:25:01.427Z,1016.37
2022-10-06T11:26:00.885Z,1016.44
2022-10-06T11:27:00.869Z,1016.39
2022-10-06T11:28:00.911Z,1016.47
2022-10-06T11:29:00.845Z,1016.46
2022-10-06T11:30:01.312Z,1016.45
2022-10-06T11:31:00.846Z,1016.49
2022-10-06T11:32:02.445Z,1016.44
2022-10-06T11:33:00.798Z,1016.43
2022-10-06T11:34:00.813Z,1016.43
2022-10-06T11:35:00.788Z,1016.40
2022-10-06T11:36:00.783Z,1016.42
2022-10-06T11:37:00.753Z,1016.49
2022-10-06T11:38:02.457Z,1016.43
2022-10-06T11:39:01.415Z,1016.43
2022-10-06T11:40:01.260Z,1016.46
2022-10-06T11:41:00.715Z,1016.48
2022-10-06T11:42:00.710Z,1016.47
2022-10-06T11:43:01.652Z,1016.42
2022-10-06T11:44:01.971Z,1016.47
2022-10-06T11:45:01.178Z,1016.43
2022-10-06T11:46:00.700Z,1016.43
2022-10-06T11:47:00.652Z,1016.43
2022-10-06T11:48:00.662Z,1016.45
2022-10-06T11:49:00.658Z,1016.40
2022-10-06T11:50:00.631Z,1016.34
2022-10-06T11:51:00.617Z,1016.38
2022-10-06T11:52:04.514Z,1016.33
2022-10-06T11:53:00.595Z,1016.32
2022-10-06T11:54:00.599Z,1016.38
2022-10-06T11:55:01.094Z,1016.38
2022-10-06T11:56:00.547Z,1016.36
2022-10-06T11:57:00.569Z,1016.36
2022-10-06T11:58:05.365Z,1016.41
2022-10-06T11:59:00.528Z,1016.31
2022-10-06T12:00:00.524Z,1016.37
2022-10-06T12:01:00.510Z,1016.37
2022-10-06T12:02:00.612Z,1016.34
2022-10-06T12:03:00.639Z,1016.38
2022-10-06T12:04:00.483Z,1016.35
2022-10-06T12:05:01.181Z,1016.35